Time;durP1;ratioP1;P1;durP2;ratioP2;P2;SDS_P1;SDS_P2;PMS_P1;PMS_P2;Temp;Humidity;BMP_temperature;BMP_pressure;BME280_temperature;BME280_humidity;BME280_pressure;Samples;Min_cycle;Max_cycle;Signal;HPM_P1;HPM_P2
2021/11/24 00:02:05;;;;;;;;;;;17.40;67.80;;;;;;5077810;28;20291;-58
2021/11/24 00:04:33;;;;;;;;;;;17.40;67.80;;;;;;5077452;28;20384;-53
2021/11/24 00:07:00;;;;;;;;;;;17.40;67.80;;;;;;5077722;28;20330;-54
2021/11/24 00:09:27;;;;;;;;;;;17.40;67.80;;;;;;5076582;28;20326;-59
2021/11/24 00:11:54;;;;;;;;;;;17.40;67.80;;;;;;5077216;28;19924;-57
2021/11/24 00:14:21;;;;;;;;;;;17.40;67.80;;;;;;5077252;28;19986;-56
2021/11/24 00:16:48;;;;;;;;;;;17.40;67.80;;;;;;5077486;28;20300;-59
2021/11/24 00:19:15;;;;;;;;;;;17.40;67.80;;;;;;5077354;28;19932;-53
2021/11/24 00:21:42;;;;;;;;;;;17.40;68.50;;;;;;5077091;28;19975;-49
2021/11/24 00:24:09;;;;;;;;;;;17.40;67.70;;;;;;5076073;28;19928;-53
2021/11/24 00:26:36;;;;;;;;;;;17.40;67.80;;;;;;5076997;28;20417;-55
2021/11/24 00:29:03;;;;;;;;;;;17.40;67.70;;;;;;5059214;28;20384;-54
2021/11/24 00:31:30;;;;;;;;;;;17.40;67.70;;;;;;5076824;28;19928;-54
2021/11/24 00:33:57;;;;;;;;;;;17.40;67.70;;;;;;5059175;28;19924;-56
2021/11/24 00:36:24;;;;;;;;;;;17.40;67.70;;;;;;5077107;28;19924;-56
2021/11/24 00:38:51;;;;;;;;;;;17.40;67.70;;;;;;5076336;28;19924;-59
2021/11/24 00:41:18;;;;;;;;;;;17.40;67.70;;;;;;5077038;28;19974;-50
2021/11/24 00:43:45;;;;;;;;;;;17.40;67.70;;;;;;5076668;28;19924;-53
2021/11/24 00:46:12;;;;;;;;;;;17.40;67.70;;;;;;5076640;28;19932;-57
2021/11/24 00:48:41;;;;;;;;;;;17.40;67.70;;;;;;5076760;28;20299;-59
2021/11/24 00:51:08;;;;;;;;;;;17.40;67.70;;;;;;5076470;28;20098;-59
2021/11/24 00:53:36;;;;;;;;;;;17.40;67.70;;;;;;5075628;28;19929;-54
2021/11/24 00:56:03;;;;;;;;;;;17.40;67.70;;;;;;5076274;28;19974;-50
2021/11/24 00:58:30;;;;;;;;;;;17.40;67.60;;;;;;5077004;28;19924;-59
2021/11/24 01:00:57;;;;;;;;;;;17.40;67.60;;;;;;5076377;28;20336;-57
2021/11/24 01:03:24;;;;;;;;;;;17.40;67.60;;;;;;5076343;28;19925;-58
2021/11/24 01:05:51;;;;;;;;;;;17.40;67.60;;;;;;5076586;28;19924;-54
2021/11/24 01:08:18;;;;;;;;;;;17.40;67.60;;;;;;5057613;28;20405;-56
2021/11/24 01:10:45;;;;;;;;;;;17.40;67.60;;;;;;5076518;28;19925;-56
2021/11/24 01:13:13;;;;;;;;;;;17.40;67.60;;;;;;5076164;28;19932;-57
2021/11/24 01:15:40;;;;;;;;;;;17.40;67.60;;;;;;5076106;28;19924;-57
2021/11/24 01:18:07;;;;;;;;;;;17.40;67.60;;;;;;5076276;28;19925;-58
2021/11/24 01:20:34;;;;;;;;;;;17.40;67.60;;;;;;5075895;28;20368;-54
2021/11/24 01:23:01;;;;;;;;;;;17.40;67.60;;;;;;5076129;28;19982;-57
2021/11/24 01:25:29;;;;;;;;;;;17.40;67.60;;;;;;5075373;28;19931;-58
2021/11/24 01:27:57;;;;;;;;;;;17.40;67.60;;;;;;5076191;28;19947;-56
2021/11/24 01:30:24;;;;;;;;;;;17.40;67.60;;;;;;5075763;28;19931;-58
2021/11/24 01:32:51;;;;;;;;;;;17.40;67.50;;;;;;5075791;28;19924;-58
2021/11/24 01:35:18;;;;;;;;;;;17.40;67.60;;;;;;5075761;28;19925;-56
2021/11/24 01:37:45;;;;;;;;;;;17.40;67.60;;;;;;5075699;28;19924;-58
2021/11/24 01:40:12;;;;;;;;;;;17.40;67.50;;;;;;5074852;28;19931;-57
2021/11/24 01:42:39;;;;;;;;;;;17.40;67.50;;;;;;5075923;28;19928;-53
2021/11/24 01:45:06;;;;;;;;;;;17.40;67.50;;;;;;5075900;28;19932;-54
2021/11/24 01:47:33;;;;;;;;;;;17.40;67.60;;;;;;5075508;28;20375;-57
2021/11/24 01:50:01;;;;;;;;;;;17.40;67.50;;;;;;5075642;28;19924;-59
2021/11/24 01:52:30;;;;;;;;;;;17.40;67.50;;;;;;5075187;28;20371;-54
2021/11/24 01:54:57;;;;;;;;;;;17.40;67.50;;;;;;5074464;28;19929;-57
2021/11/24 01:57:27;;;;;;;;;;;17.40;67.50;;;;;;5075586;28;19924;-57
2021/11/24 01:59:56;;;;;;;;;;;17.40;67.50;;;;;;5075311;28;19978;-58
2021/11/24 02:02:24;;;;;;;;;;;17.40;67.40;;;;;;5075516;28;19928;-58
2021/11/24 02:04:51;;;;;;;;;;;17.40;67.40;;;;;;5075167;28;19925;-53
2021/11/24 02:07:18;;;;;;;;;;;17.40;67.40;;;;;;5057465;28;19931;-59
2021/11/24 02:09:46;;;;;;;;;;;17.40;67.40;;;;;;5074196;28;19924;-58
2021/11/24 02:12:14;;;;;;;;;;;17.40;67.40;;;;;;5075817;28;19986;-58
2021/11/24 02:14:42;;;;;;;;;;;17.40;67.40;;;;;;5075281;28;19924;-59
2021/11/24 02:17:09;;;;;;;;;;;17.40;68.20;;;;;;5074919;28;20376;-59
2021/11/24 02:19:36;;;;;;;;;;;17.40;67.40;;;;;;5074403;28;19977;-57
2021/11/24 02:22:04;;;;;;;;;;;17.40;67.40;;;;;;5075114;28;19970;-58
2021/11/24 02:24:33;;;;;;;;;;;17.40;67.40;;;;;;5055751;28;19928;-56
2021/11/24 02:27:01;;;;;;;;;;;17.40;67.40;;;;;;5075023;28;19967;-58
2021/11/24 02:29:29;;;;;;;;;;;17.40;67.40;;;;;;5074960;28;19925;-56
2021/11/24 02:31:57;;;;;;;;;;;17.40;67.40;;;;;;5074532;28;19976;-59
2021/11/24 02:34:25;;;;;;;;;;;17.40;67.40;;;;;;5074856;28;19990;-55
2021/11/24 02:36:52;;;;;;;;;;;17.40;67.40;;;;;;5074835;28;19991;-55
2021/11/24 02:39:19;;;;;;;;;;;17.40;67.40;;;;;;5074029;28;19975;-58
2021/11/24 02:41:46;;;;;;;;;;;17.40;67.40;;;;;;5074818;28;19924;-59
2021/11/24 02:44:21;;;;;;;;;;;17.40;67.40;;;;;;5074370;28;20395;-58
2021/11/24 02:46:48;;;;;;;;;;;17.40;67.40;;;;;;5074659;28;20342;-55
2021/11/24 02:49:15;;;;;;;;;;;17.40;67.40;;;;;;5074183;28;19974;-54
2021/11/24 02:51:42;;;;;;;;;;;17.40;67.40;;;;;;5074489;28;19994;-54
2021/11/24 02:54:09;;;;;;;;;;;17.40;67.40;;;;;;5074255;28;19925;-53
2021/11/24 02:56:36;;;;;;;;;;;17.40;67.40;;;;;;5072985;28;19978;-56
2021/11/24 02:59:03;;;;;;;;;;;17.40;67.40;;;;;;5074132;28;19972;-53
2021/11/24 03:01:30;;;;;;;;;;;17.40;67.40;;;;;;5074078;28;20011;-59
2021/11/24 03:03:59;;;;;;;;;;;17.40;67.40;;;;;;5073695;28;20140;-58
2021/11/24 03:06:26;;;;;;;;;;;17.40;67.40;;;;;;5056622;28;19978;-52
2021/11/24 03:08:53;;;;;;;;;;;17.40;68.10;;;;;;5074001;28;19970;-54
2021/11/24 03:11:20;;;;;;;;;;;17.40;67.40;;;;;;5072789;28;20011;-57
2021/11/24 03:13:47;;;;;;;;;;;17.40;67.40;;;;;;5056569;28;20342;-58
2021/11/24 03:16:14;;;;;;;;;;;17.40;67.40;;;;;;5074229;28;20038;-52
2021/11/24 03:18:41;;;;;;;;;;;17.40;67.40;;;;;;5073726;28;19928;-55
2021/11/24 03:21:07;;;;;;;;;;;17.40;67.40;;;;;;5073848;28;19978;-51
2021/11/24 03:23:34;;;;;;;;;;;17.40;67.40;;;;;;5073946;28;20016;-55
2021/11/24 03:26:01;;;;;;;;;;;17.40;67.40;;;;;;5072533;28;19924;-51
2021/11/24 03:28:28;;;;;;;;;;;17.40;67.40;;;;;;5074055;28;20273;-52
2021/11/24 03:30:55;;;;;;;;;;;17.40;67.40;;;;;;5074007;28;19968;-52
2021/11/24 03:33:22;;;;;;;;;;;17.40;67.40;;;;;;5073741;28;19924;-57
2021/11/24 03:35:49;;;;;;;;;;;17.40;67.40;;;;;;5074016;28;19982;-56
2021/11/24 03:38:16;;;;;;;;;;;17.40;67.40;;;;;;5073694;28;19975;-59
2021/11/24 03:40:43;;;;;;;;;;;17.40;67.40;;;;;;5072705;28;20383;-58
2021/11/24 03:43:10;;;;;;;;;;;17.40;67.40;;;;;;5073617;28;19958;-57
2021/11/24 03:45:38;;;;;;;;;;;17.40;67.40;;;;;;5073606;28;19972;-54
2021/11/24 03:48:05;;;;;;;;;;;17.40;67.40;;;;;;5073604;28;19924;-56
2021/11/24 03:50:33;;;;;;;;;;;17.40;67.30;;;;;;5073749;28;20007;-58
2021/11/24 03:53:00;;;;;;;;;;;17.40;67.40;;;;;;5073580;28;19978;-58
2021/11/24 03:55:27;;;;;;;;;;;17.40;67.40;;;;;;5054632;28;19968;-50
2021/11/24 03:57:54;;;;;;;;;;;17.40;67.40;;;;;;5073344;28;19925;-55
2021/11/24 04:00:23;;;;;;;;;;;17.40;67.30;;;;;;5073447;28;19970;-52
2021/11/24 04:02:50;;;;;;;;;;;17.40;67.30;;;;;;5073743;28;19928;-53
2021/11/24 04:05:18;;;;;;;;;;;17.40;67.30;;;;;;5073719;28;20340;-52
2021/11/24 04:07:45;;;;;;;;;;;17.40;67.30;;;;;;5073377;28;19924;-54
2021/11/24 04:10:12;;;;;;;;;;;17.40;67.30;;;;;;5072890;28;19924;-52
2021/11/24 04:12:42;;;;;;;;;;;17.40;67.40;;;;;;5073649;28;20326;-57
2021/11/24 04:15:10;;;;;;;;;;;17.40;67.30;;;;;;5073618;28;19989;-55
2021/11/24 04:17:38;;;;;;;;;;;17.40;67.30;;;;;;5074154;28;19929;-51
2021/11/24 04:20:06;;;;;;;;;;;17.40;67.30;;;;;;5073145;28;20395;-53
2021/11/24 04:22:33;;;;;;;;;;;17.40;67.30;;;;;;5073066;28;19964;-55
2021/11/24 04:25:00;;;;;;;;;;;17.40;67.30;;;;;;5073238;28;19928;-53
2021/11/24 04:27:27;;;;;;;;;;;17.40;67.30;;;;;;5088639;28;19924;-54
2021/11/24 04:29:54;;;;;;;;;;;17.40;67.30;;;;;;5093708;28;20337;-51
2021/11/24 04:32:23;;;;;;;;;;;17.40;67.30;;;;;;5075487;28;19971;-52
2021/11/24 04:34:50;;;;;;;;;;;17.40;67.30;;;;;;5093327;28;19973;-55
2021/11/24 04:37:17;;;;;;;;;;;17.40;67.30;;;;;;5093310;28;19964;-57
2021/11/24 04:39:44;;;;;;;;;;;17.40;67.30;;;;;;5093252;28;19978;-58
2021/11/24 04:42:11;;;;;;;;;;;17.40;67.30;;;;;;5092140;28;19993;-52
2021/11/24 04:44:38;;;;;;;;;;;17.40;67.30;;;;;;5096969;28;19931;-55
2021/11/24 04:47:05;;;;;;;;;;;17.40;67.20;;;;;;5096941;28;19928;-56
2021/11/24 04:49:32;;;;;;;;;;;17.40;67.20;;;;;;5097077;28;20354;-53
2021/11/24 04:51:59;;;;;;;;;;;17.40;67.20;;;;;;5078855;28;19924;-54
2021/11/24 04:54:26;;;;;;;;;;;17.40;67.20;;;;;;5096642;28;19924;-52
2021/11/24 04:56:53;;;;;;;;;;;17.40;67.20;;;;;;5093962;28;20387;-56
2021/11/24 04:59:20;;;;;;;;;;;17.40;67.20;;;;;;5097008;28;20345;-52
2021/11/24 05:01:47;;;;;;;;;;;17.40;67.20;;;;;;5096952;28;19947;-56
2021/11/24 05:04:14;;;;;;;;;;;17.40;67.20;;;;;;5096603;28;19977;-55
2021/11/24 05:06:41;;;;;;;;;;;17.40;67.20;;;;;;5096537;28;19928;-52
2021/11/24 05:09:08;;;;;;;;;;;17.40;67.20;;;;;;5096493;28;19924;-57
2021/11/24 05:11:36;;;;;;;;;;;17.40;67.20;;;;;;5094083;28;20019;-58
2021/11/24 05:14:05;;;;;;;;;;;17.40;67.20;;;;;;5078837;28;19924;-57
2021/11/24 05:16:33;;;;;;;;;;;17.40;67.20;;;;;;5079057;28;20022;-56
2021/11/24 05:19:01;;;;;;;;;;;17.40;67.20;;;;;;5096203;28;19932;-58
2021/11/24 05:21:32;;;;;;;;;;;17.40;67.20;;;;;;5096594;28;19963;-59
2021/11/24 05:24:00;;;;;;;;;;;17.40;67.20;;;;;;5096111;28;19925;-55
2021/11/24 05:26:28;;;;;;;;;;;17.40;67.20;;;;;;5093594;28;20383;-58
2021/11/24 05:28:56;;;;;;;;;;;17.40;67.10;;;;;;5096447;28;19974;-57
2021/11/24 05:31:24;;;;;;;;;;;17.40;67.20;;;;;;5096119;28;19928;-56
2021/11/24 05:33:51;;;;;;;;;;;17.40;67.20;;;;;;5096051;28;19931;-55
2021/11/24 05:36:18;;;;;;;;;;;17.40;67.10;;;;;;5096313;28;19947;-53
2021/11/24 05:38:48;;;;;;;;;;;17.40;67.10;;;;;;5095943;28;19978;-58
2021/11/24 05:41:15;;;;;;;;;;;17.40;67.10;;;;;;5093978;28;19924;-58
2021/11/24 05:43:42;;;;;;;;;;;17.40;67.10;;;;;;5096800;28;20309;-58
2021/11/24 05:46:25;;;;;;;;;;;17.40;67.20;;;;;;5096169;28;20302;-58
2021/11/24 05:48:52;;;;;;;;;;;17.40;67.10;;;;;;5095976;28;19924;-58
2021/11/24 05:51:19;;;;;;;;;;;17.40;67.10;;;;;;5095693;28;19978;-53
2021/11/24 05:53:46;;;;;;;;;;;17.40;67.10;;;;;;5094693;28;19931;-52
2021/11/24 05:56:13;;;;;;;;;;;17.40;67.10;;;;;;5095384;28;19925;-55
2021/11/24 05:58:40;;;;;;;;;;;17.40;67.10;;;;;;5093304;28;19932;-57
2021/11/24 06:01:07;;;;;;;;;;;17.40;67.10;;;;;;5095515;28;19924;-57
2021/11/24 06:03:34;;;;;;;;;;;17.40;67.10;;;;;;5095788;28;19928;-56
2021/11/24 06:06:01;;;;;;;;;;;17.40;67.10;;;;;;5095666;28;19973;-57
2021/11/24 06:08:28;;;;;;;;;;;17.40;67.10;;;;;;5095379;28;20379;-53
2021/11/24 06:10:55;;;;;;;;;;;17.40;67.10;;;;;;5095619;28;19946;-54
2021/11/24 06:13:22;;;;;;;;;;;17.40;67.10;;;;;;5092890;28;20325;-59
2021/11/24 06:15:49;;;;;;;;;;;17.40;67.10;;;;;;5095218;28;19932;-59
2021/11/24 06:18:16;;;;;;;;;;;17.40;67.10;;;;;;5095053;28;19924;-58
2021/11/24 06:20:43;;;;;;;;;;;17.40;67.10;;;;;;5095109;28;20448;-58
2021/11/24 06:23:10;;;;;;;;;;;17.40;67.10;;;;;;5095575;28;19928;-59
2021/11/24 06:25:37;;;;;;;;;;;17.40;67.10;;;;;;5095035;28;19954;-59
2021/11/24 06:28:04;;;;;;;;;;;17.40;67.10;;;;;;5092672;28;19947;-55
2021/11/24 06:30:32;;;;;;;;;;;17.40;67.00;;;;;;5094869;28;19924;-55
2021/11/24 06:32:59;;;;;;;;;;;17.40;67.00;;;;;;5094797;28;19977;-59
2021/11/24 06:35:26;;;;;;;;;;;17.40;67.10;;;;;;5095157;28;19924;-57
2021/11/24 06:37:53;;;;;;;;;;;17.40;67.10;;;;;;5095099;28;19924;-52
2021/11/24 06:40:20;;;;;;;;;;;17.40;67.00;;;;;;5094743;28;19931;-56
2021/11/24 06:42:47;;;;;;;;;;;17.40;67.00;;;;;;5092334;28;19924;-54
2021/11/24 06:45:14;;;;;;;;;;;17.40;67.00;;;;;;5094957;28;19924;-51
2021/11/24 06:47:42;;;;;;;;;;;17.40;67.00;;;;;;5094815;28;20294;-52
2021/11/24 06:50:09;;;;;;;;;;;17.40;67.00;;;;;;5094369;28;19973;-53
2021/11/24 06:52:36;;;;;;;;;;;17.40;67.00;;;;;;5076653;28;20275;-53
2021/11/24 06:55:04;;;;;;;;;;;17.40;67.00;;;;;;5094476;28;20310;-52
2021/11/24 06:57:31;;;;;;;;;;;17.40;66.90;;;;;;5091619;28;19928;-57
2021/11/24 06:59:58;;;;;;;;;;;17.40;66.90;;;;;;5094687;28;19924;-58
2021/11/24 07:02:25;;;;;;;;;;;17.40;66.90;;;;;;5094301;28;19954;-51
2021/11/24 07:04:52;;;;;;;;;;;17.40;66.90;;;;;;5094339;28;20428;-56
2021/11/24 07:07:19;;;;;;;;;;;17.40;66.90;;;;;;5094174;28;19924;-53
2021/11/24 07:09:46;;;;;;;;;;;17.40;66.80;;;;;;5094513;28;20368;-52
2021/11/24 07:12:13;;;;;;;;;;;17.40;66.80;;;;;;5092945;28;19931;-58
2021/11/24 07:14:40;;;;;;;;;;;17.40;66.90;;;;;;5094053;28;19924;-56
2021/11/24 07:17:08;;;;;;;;;;;17.40;66.80;;;;;;5093967;28;19924;-52
2021/11/24 07:19:35;;;;;;;;;;;17.40;66.80;;;;;;5093898;28;19924;-58
2021/11/24 07:22:02;;;;;;;;;;;17.40;66.80;;;;;;5094347;28;19981;-56
2021/11/24 07:24:29;;;;;;;;;;;17.40;66.80;;;;;;5093816;28;20379;-58
2021/11/24 07:26:56;;;;;;;;;;;17.40;66.70;;;;;;5076157;28;19928;-58
2021/11/24 07:29:24;;;;;;;;;;;17.50;66.80;;;;;;5075136;28;19924;-57
2021/11/24 07:31:52;;;;;;;;;;;17.40;66.70;;;;;;5073932;28;20284;-58
2021/11/24 07:34:19;;;;;;;;;;;17.40;66.60;;;;;;5073860;28;19925;-59
2021/11/24 07:36:46;;;;;;;;;;;17.40;66.70;;;;;;5073659;28;19931;-59
2021/11/24 07:39:13;;;;;;;;;;;17.50;66.70;;;;;;5074021;28;20375;-57
2021/11/24 07:41:39;;;;;;;;;;;17.50;66.70;;;;;;5073908;28;19989;-53
2021/11/24 07:44:06;;;;;;;;;;;17.50;66.70;;;;;;5055050;28;19924;-59
2021/11/24 07:46:34;;;;;;;;;;;17.50;66.70;;;;;;5073584;28;19932;-59
2021/11/24 07:49:01;;;;;;;;;;;17.50;66.60;;;;;;5073436;28;19935;-55
2021/11/24 07:51:28;;;;;;;;;;;17.50;66.60;;;;;;5073488;28;20117;-56
2021/11/24 07:53:55;;;;;;;;;;;17.50;66.60;;;;;;5073237;28;19929;-52
2021/11/24 07:56:23;;;;;;;;;;;17.50;66.60;;;;;;5055528;28;20410;-52
2021/11/24 07:58:50;;;;;;;;;;;17.50;66.50;;;;;;5072471;28;19925;-54
2021/11/24 08:01:17;;;;;;;;;;;17.50;66.50;;;;;;5073366;28;19924;-56
2021/11/24 08:03:44;;;;;;;;;;;17.50;66.40;;;;;;5055752;28;19925;-55
2021/11/24 08:06:11;;;;;;;;;;;17.50;66.40;;;;;;5073326;28;20396;-55
2021/11/24 08:08:39;;;;;;;;;;;17.50;66.40;;;;;;5073679;28;20357;-57
2021/11/24 08:11:06;;;;;;;;;;;17.50;66.40;;;;;;5073318;28;19974;-51
2021/11/24 08:13:33;;;;;;;;;;;17.50;66.30;;;;;;5072116;28;19970;-54
2021/11/24 08:16:00;;;;;;;;;;;17.50;66.30;;;;;;5073597;28;19924;-48
2021/11/24 08:18:27;;;;;;;;;;;17.50;66.30;;;;;;5076386;28;20398;-58
2021/11/24 08:20:59;;;;;;;;;;;17.50;66.30;;;;;;5077096;28;19925;-54
2021/11/24 08:23:26;;;;;;;;;;;17.50;66.30;;;;;;5076913;28;19970;-53
2021/11/24 08:25:53;;;;;;;;;;;17.50;66.20;;;;;;5077303;28;19924;-54
2021/11/24 08:28:20;;;;;;;;;;;17.50;66.20;;;;;;5075829;28;20494;-50
2021/11/24 08:30:47;;;;;;;;;;;17.50;66.20;;;;;;5077275;28;20409;-55
2021/11/24 08:33:14;;;;;;;;;;;17.60;66.30;;;;;;5076831;28;19928;-56
2021/11/24 08:35:41;;;;;;;;;;;17.60;66.20;;;;;;5077168;28;20331;-54
2021/11/24 08:38:08;;;;;;;;;;;17.60;66.20;;;;;;5076779;28;19974;-52
2021/11/24 08:40:35;;;;;;;;;;;17.60;66.10;;;;;;5077068;28;19978;-54
2021/11/24 08:43:02;;;;;;;;;;;17.60;66.00;;;;;;5076648;28;20383;-59
2021/11/24 08:45:29;;;;;;;;;;;17.60;66.00;;;;;;5058729;28;19931;-54
2021/11/24 08:47:56;;;;;;;;;;;17.60;66.00;;;;;;5076508;28;20015;-55
2021/11/24 08:50:23;;;;;;;;;;;17.60;65.90;;;;;;5076904;28;19925;-57
2021/11/24 08:52:50;;;;;;;;;;;17.70;66.00;;;;;;5076589;28;19987;-55
2021/11/24 08:55:17;;;;;;;;;;;17.70;65.90;;;;;;5058833;28;19932;-55
2021/11/24 08:57:45;;;;;;;;;;;17.70;65.90;;;;;;5076382;28;19990;-58
2021/11/24 09:00:13;;;;;;;;;;;17.70;65.90;;;;;;5076364;28;19968;-51
2021/11/24 09:02:41;;;;;;;;;;;17.70;65.80;;;;;;5076340;28;19979;-50
2021/11/24 09:05:09;;;;;;;;;;;17.70;65.80;;;;;;5076639;28;20272;-56
2021/11/24 09:07:36;;;;;;;;;;;17.70;65.70;;;;;;5076537;28;19986;-56
2021/11/24 09:10:04;;;;;;;;;;;17.70;66.40;;;;;;5058846;28;19925;-57
2021/11/24 09:12:31;;;;;;;;;;;17.70;65.70;;;;;;5076441;28;19928;-56
2021/11/24 09:14:58;;;;;;;;;;;17.70;65.60;;;;;;5075245;28;19929;-56
2021/11/24 09:17:25;;;;;;;;;;;17.70;65.60;;;;;;5076407;28;19925;-53
2021/11/24 09:19:52;;;;;;;;;;;17.70;65.60;;;;;;5076187;28;19935;-53
2021/11/24 09:22:35;;;;;;;;;;;17.70;65.50;;;;;;5076059;28;19925;-55
2021/11/24 09:25:02;;;;;;;;;;;17.70;65.50;;;;;;5075949;28;19928;-53
2021/11/24 09:27:32;;;;;;;;;;;17.70;65.50;;;;;;5076118;28;19924;-57
2021/11/24 09:30:00;;;;;;;;;;;17.80;65.50;;;;;;5074710;28;19924;-55
2021/11/24 09:32:27;;;;;;;;;;;17.80;65.50;;;;;;5075726;28;19924;-60
2021/11/24 09:34:55;;;;;;;;;;;17.70;65.40;;;;;;5076036;28;19928;-58
2021/11/24 09:37:22;;;;;;;;;;;17.80;65.50;;;;;;5075765;28;19925;-59
2021/11/24 09:39:49;;;;;;;;;;;17.80;65.50;;;;;;5075695;28;20046;-59
2021/11/24 09:42:17;;;;;;;;;;;17.80;65.40;;;;;;5075665;28;19931;-57
2021/11/24 09:44:46;;;;;;;;;;;17.80;65.40;;;;;;5075330;28;19924;-56
2021/11/24 09:47:14;;;;;;;;;;;17.80;65.40;;;;;;5075538;28;20277;-59
2021/11/24 09:49:44;;;;;;;;;;;17.80;65.40;;;;;;5075631;28;19974;-57
2021/11/24 09:52:18;;;;;;;;;;;17.80;65.40;;;;;;5075303;28;19978;-55
2021/11/24 09:54:51;;;;;;;;;;;17.80;65.40;;;;;;5074961;28;20027;-58
2021/11/24 09:57:19;;;;;;;;;;;17.80;65.40;;;;;;5075160;28;20027;-57
2021/11/24 09:59:46;;;;;;;;;;;17.80;65.30;;;;;;5074731;28;19925;-57
2021/11/24 10:02:14;;;;;;;;;;;17.80;65.40;;;;;;5075485;28;19932;-61
2021/11/24 10:04:42;;;;;;;;;;;17.80;65.40;;;;;;5057506;28;19924;-59
2021/11/24 10:07:10;;;;;;;;;;;17.80;65.40;;;;;;5075415;28;19924;-56
2021/11/24 10:09:40;;;;;;;;;;;17.80;65.40;;;;;;5075322;28;19925;-56
2021/11/24 10:12:08;;;;;;;;;;;17.80;65.40;;;;;;5074970;28;19925;-53
2021/11/24 10:14:35;;;;;;;;;;;17.80;65.40;;;;;;5055996;28;19924;-57
2021/11/24 10:17:07;;;;;;;;;;;17.80;65.40;;;;;;5074876;28;19951;-56
2021/11/24 10:19:35;;;;;;;;;;;17.80;65.40;;;;;;5074671;28;19924;-53
2021/11/24 10:22:03;;;;;;;;;;;17.80;65.40;;;;;;5075066;28;19928;-53
2021/11/24 10:24:32;;;;;;;;;;;17.80;65.40;;;;;;5074582;28;19924;-60
2021/11/24 10:27:02;;;;;;;;;;;17.80;65.40;;;;;;5074689;28;19924;-55
2021/11/24 10:29:34;;;;;;;;;;;17.80;65.40;;;;;;5073759;28;20031;-55
2021/11/24 10:32:02;;;;;;;;;;;17.80;65.40;;;;;;5074600;28;19967;-56
2021/11/24 10:34:34;;;;;;;;;;;17.80;65.40;;;;;;5074780;28;19974;-60
2021/11/24 10:37:04;;;;;;;;;;;17.70;65.40;;;;;;5074755;28;19928;-57
2021/11/24 10:39:37;;;;;;;;;;;17.80;65.50;;;;;;5056568;28;20044;-55
2021/11/24 10:42:08;;;;;;;;;;;17.80;65.40;;;;;;5074451;28;19931;-59
2021/11/24 10:44:35;;;;;;;;;;;17.80;65.40;;;;;;5073465;28;19932;-57
2021/11/24 10:47:06;;;;;;;;;;;17.80;65.40;;;;;;5074640;28;20032;-52
2021/11/24 10:49:40;;;;;;;;;;;17.80;65.40;;;;;;5074483;28;19931;-56
2021/11/24 10:52:12;;;;;;;;;;;17.80;65.40;;;;;;5074223;28;19954;-55
2021/11/24 10:54:39;;;;;;;;;;;17.80;65.40;;;;;;5074219;28;19960;-56
2021/11/24 10:57:08;;;;;;;;;;;17.80;65.40;;;;;;5073967;28;19970;-59
2021/11/24 10:59:40;;;;;;;;;;;17.80;65.30;;;;;;5073274;28;19925;-54
2021/11/24 11:02:18;;;;;;;;;;;17.80;65.30;;;;;;5056705;28;19978;-59
2021/11/24 11:04:59;;;;;;;;;;;17.80;65.30;;;;;;5074331;28;20006;-54
2021/11/24 11:07:27;;;;;;;;;;;17.80;65.20;;;;;;5074040;28;19969;-55
2021/11/24 11:10:14;;;;;;;;;;;17.80;65.20;;;;;;5074284;28;19925;-60
2021/11/24 11:12:45;;;;;;;;;;;17.80;65.10;;;;;;5073934;28;20028;-56
2021/11/24 11:15:15;;;;;;;;;;;17.80;65.10;;;;;;5072765;28;19943;-55
2021/11/24 11:17:55;;;;;;;;;;;17.80;65.10;;;;;;5074054;28;20011;-59
2021/11/24 11:20:23;;;;;;;;;;;17.90;65.10;;;;;;5074106;28;19973;-56
2021/11/24 11:22:54;;;;;;;;;;;17.80;65.00;;;;;;5073280;28;19925;-56
2021/11/24 11:25:21;;;;;;;;;;;17.90;65.10;;;;;;5073989;28;19924;-58
2021/11/24 11:27:49;;;;;;;;;;;17.90;65.10;;;;;;5074027;28;19928;-58
2021/11/24 11:30:16;;;;;;;;;;;17.90;65.10;;;;;;5074615;28;19981;-58
2021/11/24 11:32:43;;;;;;;;;;;17.80;65.00;;;;;;5094230;28;19928;-58
2021/11/24 11:35:10;;;;;;;;;;;17.90;65.10;;;;;;5076207;28;20264;-58
2021/11/24 11:37:37;;;;;;;;;;;17.80;65.00;;;;;;5094165;28;20311;-54
2021/11/24 11:40:06;;;;;;;;;;;17.90;65.10;;;;;;5093777;28;19924;-51
2021/11/24 11:42:34;;;;;;;;;;;17.90;65.10;;;;;;5093789;28;20397;-57
2021/11/24 11:45:21;;;;;;;;;;;17.90;65.00;;;;;;5076158;28;19990;-57
2021/11/24 11:47:48;;;;;;;;;;;17.90;65.00;;;;;;5093945;28;20022;-53
2021/11/24 11:50:34;;;;;;;;;;;17.90;65.00;;;;;;5093744;28;19969;-54
2021/11/24 11:53:08;;;;;;;;;;;17.90;65.00;;;;;;5078632;28;19931;-59
2021/11/24 11:55:35;;;;;;;;;;;17.90;65.00;;;;;;5098232;28;19924;-55
2021/11/24 11:58:19;;;;;;;;;;;17.90;64.90;;;;;;5076303;28;20429;-59
2021/11/24 12:01:06;;;;;;;;;;;17.90;64.80;;;;;;5075762;28;19978;-59
2021/11/24 12:03:52;;;;;;;;;;;17.90;64.90;;;;;;5077835;28;19974;-59
2021/11/24 12:06:20;;;;;;;;;;;17.90;64.90;;;;;;5077522;28;20410;-57
2021/11/24 12:09:05;;;;;;;;;;;17.90;64.80;;;;;;5077725;28;20338;-59
2021/11/24 12:11:51;;;;;;;;;;;17.90;64.80;;;;;;5077345;28;20351;-60
2021/11/24 12:14:37;;;;;;;;;;;17.90;64.80;;;;;;5077138;28;19976;-59
2021/11/24 12:17:27;;;;;;;;;;;17.90;64.80;;;;;;5058795;28;19999;-57
2021/11/24 12:19:54;;;;;;;;;;;18.00;64.90;;;;;;5057067;28;20380;-59
2021/11/24 12:22:40;;;;;;;;;;;17.90;64.80;;;;;;5057175;28;19975;-57
2021/11/24 12:25:07;;;;;;;;;;;18.00;64.90;;;;;;5057379;28;19925;-58
2021/11/24 12:28:07;;;;;;;;;;;18.00;64.90;;;;;;5055855;28;19925;-59
2021/11/24 12:33:04;;;;;;;;;;;18.00;64.80;;;;;;5074758;28;19925;-52
2021/11/24 12:35:32;;;;;;;;;;;17.90;64.70;;;;;;5058210;28;19924;-57
2021/11/24 12:38:20;;;;;;;;;;;18.00;64.80;;;;;;5060954;28;19924;-58
2021/11/24 12:40:50;;;;;;;;;;;17.90;64.70;;;;;;5074936;28;20362;-54
2021/11/24 12:43:18;;;;;;;;;;;17.90;64.70;;;;;;5074749;28;19928;-58
2021/11/24 12:46:00;;;;;;;;;;;18.00;64.90;;;;;;5073813;28;20354;-58
2021/11/24 12:48:31;;;;;;;;;;;18.00;64.80;;;;;;5054538;28;19925;-57
2021/11/24 12:51:04;;;;;;;;;;;18.00;64.80;;;;;;5054353;28;19932;-55
2021/11/24 12:53:37;;;;;;;;;;;18.00;64.80;;;;;;5053467;28;20399;-58
2021/11/24 12:56:41;;;;;;;;;;;17.90;64.80;;;;;;5054254;28;19975;-57
2021/11/24 12:59:09;;;;;;;;;;;18.00;64.80;;;;;;5054523;28;19932;-56
2021/11/24 13:01:38;;;;;;;;;;;18.00;64.80;;;;;;5065463;28;20333;-57
2021/11/24 13:04:09;;;;;;;;;;;17.90;64.70;;;;;;5094094;28;19924;-56
2021/11/24 13:06:38;;;;;;;;;;;17.90;64.80;;;;;;5082523;28;19932;-57
2021/11/24 13:09:10;;;;;;;;;;;17.90;64.80;;;;;;5076240;28;19931;-57
2021/11/24 13:11:57;;;;;;;;;;;17.90;64.80;;;;;;5076594;28;20011;-58
2021/11/24 13:14:50;;;;;;;;;;;17.90;64.90;;;;;;5076100;28;19982;-57
2021/11/24 13:17:40;;;;;;;;;;;17.90;64.90;;;;;;5073086;28;19925;-59
2021/11/24 13:20:09;;;;;;;;;;;18.00;65.00;;;;;;5076085;28;20280;-59
2021/11/24 13:22:38;;;;;;;;;;;17.90;64.90;;;;;;5075845;28;19932;-57
2021/11/24 13:25:09;;;;;;;;;;;17.90;64.90;;;;;;5075989;28;20376;-55
2021/11/24 13:27:37;;;;;;;;;;;18.00;65.00;;;;;;5076269;28;19924;-57
2021/11/24 13:30:04;;;;;;;;;;;17.90;64.90;;;;;;5076233;28;19970;-58
2021/11/24 13:32:31;;;;;;;;;;;17.90;64.90;;;;;;5073230;28;19924;-57
2021/11/24 13:34:58;;;;;;;;;;;17.90;64.90;;;;;;5075761;28;19925;-56
2021/11/24 13:37:27;;;;;;;;;;;17.90;64.90;;;;;;5075710;28;20389;-57
2021/11/24 13:39:54;;;;;;;;;;;17.90;64.90;;;;;;5075686;28;19929;-59
2021/11/24 13:42:21;;;;;;;;;;;17.90;64.90;;;;;;5075463;28;19928;-57
2021/11/24 13:44:49;;;;;;;;;;;17.90;64.90;;;;;;5075657;28;20412;-59
2021/11/24 13:47:20;;;;;;;;;;;17.90;64.90;;;;;;5072779;28;19924;-57
2021/11/24 13:49:48;;;;;;;;;;;17.90;64.90;;;;;;5075311;28;20367;-59
2021/11/24 13:52:19;;;;;;;;;;;17.90;65.00;;;;;;5075231;28;19978;-55
2021/11/24 13:54:48;;;;;;;;;;;17.90;65.00;;;;;;5075007;28;20396;-56
2021/11/24 13:57:17;;;;;;;;;;;17.90;65.00;;;;;;5085788;28;19928;-53
2021/11/24 13:59:46;;;;;;;;;;;17.90;65.00;;;;;;5095547;28;19924;-58
2021/11/24 14:02:21;;;;;;;;;;;17.90;65.00;;;;;;5093286;28;20351;-59
2021/11/24 14:04:49;;;;;;;;;;;17.90;65.00;;;;;;5095514;28;19971;-55
2021/11/24 14:07:21;;;;;;;;;;;17.90;65.00;;;;;;5095426;28;19970;-59
2021/11/24 14:09:50;;;;;;;;;;;17.90;65.00;;;;;;5095395;28;19935;-59
2021/11/24 14:12:20;;;;;;;;;;;17.90;65.00;;;;;;5095315;28;19924;-58
2021/11/24 14:14:50;;;;;;;;;;;17.90;65.00;;;;;;5095172;28;19978;-58
2021/11/24 14:17:37;;;;;;;;;;;17.90;65.00;;;;;;5092599;28;19924;-59
2021/11/24 14:20:06;;;;;;;;;;;17.90;65.10;;;;;;5077306;28;19931;-57
2021/11/24 14:22:44;;;;;;;;;;;17.80;65.00;;;;;;5094930;28;19928;-60
2021/11/24 14:25:16;;;;;;;;;;;17.90;65.10;;;;;;5095306;28;19924;-54
2021/11/24 14:27:44;;;;;;;;;;;17.80;65.00;;;;;;5077182;28;19935;-55
2021/11/24 14:30:14;;;;;;;;;;;17.80;65.00;;;;;;5095346;28;20342;-55